createdAt,value
2023-04-30T00:01:14.792Z,22.23
2023-04-30T00:03:43.259Z,23.43
2023-04-30T00:06:11.811Z,20.63
2023-04-30T00:08:40.371Z,17.70
2023-04-30T00:11:08.606Z,20.13
2023-04-30T00:13:45.560Z,20.53
2023-04-30T00:16:15.467Z,16.63
2023-04-30T00:18:43.913Z,16.27
2023-04-30T00:21:12.222Z,23.10
2023-04-30T00:23:40.828Z,20.03
2023-04-30T00:26:09.059Z,19.23
2023-04-30T00:28:38.552Z,17.37
2023-04-30T00:31:09.586Z,20.50
2023-04-30T00:33:40.413Z,21.03
2023-04-30T00:36:09.937Z,17.40
2023-04-30T00:38:38.487Z,20.03
2023-04-30T00:41:07.640Z,15.80
2023-04-30T00:43:39.065Z,19.00
2023-04-30T00:46:08.110Z,22.50
2023-04-30T00:48:37.125Z,15.67
2023-04-30T00:51:09.307Z,17.10
2023-04-30T00:53:40.759Z,19.37
2023-04-30T00:56:11.819Z,16.70
2023-04-30T00:58:43.312Z,16.37
2023-04-30T01:01:12.536Z,15.90
2023-04-30T01:03:41.803Z,20.23
2023-04-30T01:06:11.698Z,19.17
2023-04-30T01:08:41.053Z,16.83
2023-04-30T01:11:24.093Z,18.53
2023-04-30T01:13:59.857Z,21.80
2023-04-30T01:16:32.061Z,17.43
2023-04-30T01:19:06.689Z,15.60
2023-04-30T01:21:39.549Z,15.73
2023-04-30T01:24:38.850Z,16.57
2023-04-30T01:27:24.812Z,15.67
2023-04-30T01:30:01.908Z,29.17
2023-04-30T01:32:30.321Z,20.77
2023-04-30T01:35:02.367Z,15.10
2023-04-30T01:37:41.209Z,18.53
2023-04-30T01:40:24.668Z,19.40
2023-04-30T01:43:03.318Z,14.77
2023-04-30T01:45:49.631Z,18.27
2023-04-30T01:48:27.501Z,19.33
2023-04-30T01:51:04.713Z,18.23
2023-04-30T01:53:39.436Z,19.83
2023-04-30T01:56:12.401Z,23.07
2023-04-30T01:58:42.542Z,20.23
2023-04-30T02:01:30.501Z,18.60
2023-04-30T02:06:49.317Z,19.47
2023-04-30T02:09:17.840Z,22.00
2023-04-30T02:11:46.135Z,21.13
2023-04-30T02:14:14.553Z,23.90
2023-04-30T02:16:44.285Z,16.50
2023-04-30T02:19:12.879Z,17.60
2023-04-30T02:21:43.530Z,19.30
2023-04-30T02:24:11.795Z,18.17
2023-04-30T02:26:40.676Z,17.60
2023-04-30T02:29:09.429Z,14.70
2023-04-30T02:31:38.175Z,15.60
2023-04-30T02:34:08.172Z,15.70
2023-04-30T02:36:36.742Z,17.63
2023-04-30T02:39:07.700Z,13.97
2023-04-30T02:41:36.864Z,14.00
2023-04-30T02:44:06.174Z,12.00
2023-04-30T02:46:37.010Z,15.23
2023-04-30T02:49:05.635Z,15.00
2023-04-30T02:51:35.297Z,13.47
2023-04-30T02:54:04.710Z,11.13
2023-04-30T02:56:33.185Z,14.90
2023-04-30T02:59:01.623Z,11.73
2023-04-30T03:01:32.815Z,13.83
2023-04-30T03:04:03.647Z,14.07
2023-04-30T03:06:33.294Z,10.90
2023-04-30T03:09:04.252Z,13.70
2023-04-30T03:11:35.507Z,13.00
2023-04-30T03:14:04.380Z,13.93
2023-04-30T03:16:32.991Z,13.83
2023-04-30T03:19:02.108Z,17.37
2023-04-30T03:21:32.834Z,11.17
2023-04-30T03:24:02.981Z,11.07
2023-04-30T03:26:31.474Z,9.30
2023-04-30T03:29:00.780Z,9.27
2023-04-30T03:31:29.610Z,9.50
2023-04-30T03:33:58.152Z,10.87
2023-04-30T03:36:27.561Z,10.27
2023-04-30T03:38:56.461Z,11.63
2023-04-30T03:41:26.136Z,11.47
2023-04-30T03:43:54.748Z,8.03
2023-04-30T03:46:23.661Z,11.40
2023-04-30T03:48:52.349Z,7.83
2023-04-30T03:51:24.749Z,11.00
2023-04-30T03:54:02.180Z,10.80
2023-04-30T03:56:31.967Z,11.87
2023-04-30T03:59:00.652Z,16.60
2023-04-30T04:01:31.300Z,11.47
2023-04-30T04:04:02.650Z,9.87
2023-04-30T04:06:34.925Z,10.10
2023-04-30T04:09:06.573Z,8.70
2023-04-30T04:11:36.215Z,8.57
2023-04-30T04:14:04.829Z,9.57
2023-04-30T04:16:33.591Z,10.50
2023-04-30T04:19:02.938Z,12.50
2023-04-30T04:21:31.887Z,10.47
2023-04-30T04:24:03.080Z,10.23
2023-04-30T04:26:32.046Z,7.60
2023-04-30T04:29:02.130Z,11.80
2023-04-30T04:31:34.454Z,9.80
2023-04-30T04:34:06.310Z,8.40
2023-04-30T04:36:37.495Z,9.70
2023-04-30T04:39:06.259Z,9.67
2023-04-30T04:41:36.679Z,10.37
2023-04-30T04:44:09.332Z,8.27
2023-04-30T04:46:39.946Z,13.40
2023-04-30T04:49:09.168Z,8.70
2023-04-30T04:51:37.596Z,7.10
2023-04-30T04:54:06.491Z,8.87
2023-04-30T04:56:34.950Z,7.90
2023-04-30T04:59:03.381Z,9.20
2023-04-30T05:01:33.341Z,10.43
2023-04-30T05:04:01.728Z,9.30
2023-04-30T05:06:30.072Z,10.40
2023-04-30T05:08:58.600Z,8.23
2023-04-30T05:11:27.064Z,7.40
2023-04-30T05:13:55.663Z,9.43
2023-04-30T05:16:24.203Z,8.57
2023-04-30T05:18:53.876Z,9.13
2023-04-30T05:21:23.324Z,8.80
2023-04-30T05:23:51.919Z,8.13
2023-04-30T05:26:20.214Z,8.90
2023-04-30T05:28:48.442Z,8.23
2023-04-30T05:31:17.782Z,11.47
2023-04-30T05:33:46.908Z,9.23
2023-04-30T05:36:16.925Z,12.70
2023-04-30T05:38:45.114Z,8.63
2023-04-30T05:41:14.353Z,8.90
2023-04-30T05:43:42.899Z,9.60
2023-04-30T05:46:11.690Z,10.50
2023-04-30T05:48:40.126Z,8.93
2023-04-30T05:51:08.520Z,7.93
2023-04-30T05:53:38.218Z,9.60
2023-04-30T05:56:06.730Z,8.87
2023-04-30T05:58:34.947Z,10.07
2023-04-30T06:01:03.575Z,7.47
2023-04-30T06:03:32.086Z,9.20
2023-04-30T06:06:00.315Z,8.90
2023-04-30T06:08:29.711Z,8.73
2023-04-30T06:10:59.496Z,8.73
2023-04-30T06:13:27.933Z,9.03
2023-04-30T06:15:56.244Z,9.40
2023-04-30T06:18:26.443Z,6.77
2023-04-30T06:20:54.658Z,5.33
2023-04-30T06:23:22.883Z,7.93
2023-04-30T06:25:52.708Z,8.40
2023-04-30T06:28:22.352Z,5.57
2023-04-30T06:30:51.105Z,5.73
2023-04-30T06:33:19.367Z,6.50
2023-04-30T06:35:48.080Z,5.17
2023-04-30T06:38:16.333Z,6.37
2023-04-30T06:40:44.658Z,5.37
2023-04-30T06:43:12.765Z,4.33
2023-04-30T06:45:42.431Z,7.10
2023-04-30T06:48:10.718Z,4.90
2023-04-30T06:50:45.338Z,5.53
2023-04-30T06:53:13.878Z,5.20
2023-04-30T06:55:43.186Z,4.60
2023-04-30T06:58:11.748Z,4.17
2023-04-30T07:00:40.015Z,5.30
2023-04-30T07:03:09.586Z,4.93
2023-04-30T07:05:38.359Z,6.00
2023-04-30T07:08:07.952Z,4.23
2023-04-30T07:10:36.294Z,3.30
2023-04-30T07:13:04.666Z,13.63
2023-04-30T07:15:33.173Z,4.17
2023-04-30T07:18:01.666Z,5.17
2023-04-30T07:20:31.492Z,4.63
2023-04-30T07:22:59.667Z,4.30
2023-04-30T07:25:27.939Z,5.23
2023-04-30T07:27:56.844Z,4.57
2023-04-30T07:30:25.429Z,5.63
2023-04-30T07:32:54.009Z,4.70
2023-04-30T07:35:22.356Z,4.27
2023-04-30T07:37:52.136Z,3.90
2023-04-30T07:40:32.692Z,3.63
2023-04-30T07:43:04.258Z,3.70
2023-04-30T07:45:34.088Z,3.47
2023-04-30T07:48:03.114Z,3.10
2023-04-30T07:50:34.182Z,5.47
2023-04-30T07:53:05.296Z,5.13
2023-04-30T07:55:33.760Z,5.70
2023-04-30T07:58:02.606Z,4.60
2023-04-30T08:00:31.155Z,4.50
2023-04-30T08:03:00.759Z,3.60
2023-04-30T08:05:29.379Z,4.00
2023-04-30T08:07:57.557Z,3.33
2023-04-30T08:10:27.661Z,4.87
2023-04-30T08:12:56.089Z,5.00
2023-04-30T08:15:25.247Z,4.43
2023-04-30T08:17:53.517Z,2.63
2023-04-30T08:20:23.470Z,4.60
2023-04-30T08:22:52.391Z,3.13
2023-04-30T08:25:20.850Z,3.37
2023-04-30T08:27:50.704Z,5.50
2023-04-30T08:30:19.320Z,4.43
2023-04-30T08:32:47.853Z,2.60
2023-04-30T08:35:16.968Z,2.60
2023-04-30T08:37:45.210Z,5.40
2023-04-30T08:40:14.174Z,5.20
2023-04-30T08:42:48.360Z,5.17
2023-04-30T08:45:19.986Z,4.90
2023-04-30T08:47:49.030Z,3.87
2023-04-30T08:50:17.269Z,4.40
2023-04-30T08:52:45.574Z,3.57
2023-04-30T08:55:13.768Z,3.97
2023-04-30T08:57:41.988Z,3.10
2023-04-30T09:00:11.373Z,5.20
2023-04-30T09:02:43.323Z,2.40
2023-04-30T09:05:13.909Z,3.17
2023-04-30T09:07:46.170Z,2.80
2023-04-30T09:10:24.261Z,4.10
2023-04-30T09:13:02.568Z,2.67
2023-04-30T09:15:31.803Z,3.10
2023-04-30T09:18:17.510Z,2.77
2023-04-30T09:20:57.114Z,2.80
2023-04-30T09:23:26.270Z,3.30
2023-04-30T09:25:54.816Z,3.27
2023-04-30T09:28:26.453Z,7.00
2023-04-30T09:30:55.493Z,5.00
2023-04-30T09:33:25.244Z,2.20
2023-04-30T09:35:53.647Z,2.93
2023-04-30T09:38:29.442Z,5.40
2023-04-30T09:41:00.239Z,2.90
2023-04-30T09:43:28.827Z,2.80
2023-04-30T09:45:59.709Z,4.17
2023-04-30T09:48:29.893Z,2.20
2023-04-30T09:50:58.529Z,1.70
2023-04-30T09:53:26.775Z,3.53
2023-04-30T09:55:56.794Z,4.97
2023-04-30T09:58:30.305Z,2.73
2023-04-30T10:01:02.620Z,4.43
2023-04-30T10:03:33.670Z,2.33
2023-04-30T10:06:02.756Z,2.90
2023-04-30T10:08:35.238Z,3.40
2023-04-30T10:11:06.199Z,2.50
2023-04-30T10:13:39.345Z,3.20
2023-04-30T10:16:13.420Z,3.60
2023-04-30T10:18:44.589Z,4.20
2023-04-30T10:21:16.614Z,2.17
2023-04-30T10:23:46.432Z,3.57
2023-04-30T10:26:17.070Z,3.70
2023-04-30T10:28:47.289Z,1.90
2023-04-30T10:31:16.463Z,3.30
2023-04-30T10:33:54.439Z,2.80
2023-04-30T10:36:31.010Z,3.40
2023-04-30T10:39:00.157Z,3.30
2023-04-30T10:41:32.008Z,2.50
2023-04-30T10:44:05.295Z,2.27
2023-04-30T10:46:36.958Z,4.90
2023-04-30T10:49:06.965Z,2.60
2023-04-30T10:51:49.473Z,2.90
2023-04-30T10:54:27.200Z,3.70
2023-04-30T10:56:56.426Z,3.57
2023-04-30T10:59:24.721Z,4.40
2023-04-30T11:01:58.151Z,2.33
2023-04-30T11:04:28.215Z,2.23
2023-04-30T11:07:03.704Z,3.00
2023-04-30T11:09:41.357Z,2.53
2023-04-30T11:12:14.757Z,3.57
2023-04-30T11:14:44.958Z,3.00
2023-04-30T11:17:15.121Z,2.63
2023-04-30T11:19:52.562Z,2.63
2023-04-30T11:22:24.233Z,3.70
2023-04-30T11:24:54.601Z,3.50
2023-04-30T11:27:24.749Z,3.30
2023-04-30T11:29:54.207Z,3.50
2023-04-30T11:32:23.782Z,6.50
2023-04-30T11:34:53.985Z,5.13
2023-04-30T11:37:25.697Z,4.80
2023-04-30T11:39:54.391Z,2.40
2023-04-30T11:42:22.825Z,2.53
2023-04-30T11:44:51.080Z,2.70
2023-04-30T11:47:19.250Z,3.00
2023-04-30T11:49:47.479Z,4.63
2023-04-30T11:52:21.971Z,2.07
2023-04-30T11:54:50.473Z,3.50
2023-04-30T11:57:18.962Z,3.00
2023-04-30T11:59:47.255Z,2.60
2023-04-30T12:02:17.071Z,4.20
2023-04-30T12:04:45.418Z,2.87
2023-04-30T12:07:13.615Z,3.83
2023-04-30T12:10:03.831Z,2.70
2023-04-30T12:12:32.155Z,2.50
2023-04-30T12:15:11.651Z,2.20
2023-04-30T12:17:39.807Z,1.80
2023-04-30T12:20:09.666Z,4.00
2023-04-30T12:22:38.262Z,2.83
2023-04-30T12:25:14.879Z,8.00
2023-04-30T12:27:43.844Z,2.70
2023-04-30T12:30:13.191Z,2.90
2023-04-30T12:32:46.166Z,2.70
2023-04-30T12:35:18.949Z,2.37
2023-04-30T12:37:49.007Z,4.13
2023-04-30T12:40:20.090Z,2.60
2023-04-30T12:42:48.472Z,2.60
2023-04-30T12:45:44.310Z,3.43
2023-04-30T12:48:13.225Z,3.10
2023-04-30T12:50:41.516Z,5.33
2023-04-30T12:53:10.061Z,2.80
2023-04-30T12:55:39.849Z,3.40
2023-04-30T12:58:09.282Z,3.30
2023-04-30T13:00:48.736Z,2.20
2023-04-30T13:03:18.999Z,5.20
2023-04-30T13:05:52.546Z,4.63
2023-04-30T13:08:21.611Z,3.63
2023-04-30T13:10:51.820Z,4.30
2023-04-30T13:13:21.585Z,2.67
2023-04-30T13:15:49.784Z,2.50
2023-04-30T13:18:18.008Z,2.40
2023-04-30T13:20:46.200Z,2.80
2023-04-30T13:23:14.436Z,4.67
2023-04-30T13:25:43.645Z,3.53
2023-04-30T13:28:13.222Z,3.83
2023-04-30T13:30:42.080Z,4.17
2023-04-30T13:33:10.257Z,8.47
2023-04-30T13:35:38.481Z,2.80
2023-04-30T13:38:07.322Z,5.37
2023-04-30T13:40:35.415Z,3.87
2023-04-30T13:43:04.309Z,3.00
2023-04-30T13:45:34.165Z,2.33
2023-04-30T13:48:02.570Z,3.83
2023-04-30T13:50:30.748Z,6.00
2023-04-30T13:52:59.477Z,2.60
2023-04-30T13:55:27.679Z,2.77
2023-04-30T13:57:56.980Z,2.17
2023-04-30T14:00:25.419Z,3.97
2023-04-30T14:02:55.696Z,3.07
2023-04-30T14:05:23.898Z,2.13
2023-04-30T14:07:52.100Z,2.90
2023-04-30T14:10:20.421Z,2.53
2023-04-30T14:12:48.863Z,2.63
2023-04-30T14:15:17.412Z,2.40
2023-04-30T14:17:45.617Z,3.20
2023-04-30T14:20:15.296Z,4.47
2023-04-30T14:22:43.443Z,2.10
2023-04-30T14:25:12.702Z,2.33
2023-04-30T14:27:41.866Z,3.30
2023-04-30T14:30:11.084Z,2.93
2023-04-30T14:32:39.238Z,3.23
2023-04-30T14:35:09.679Z,3.90
2023-04-30T14:37:39.184Z,2.30
2023-04-30T14:40:09.601Z,5.00
2023-04-30T14:42:37.826Z,2.50
2023-04-30T14:45:07.204Z,3.07
2023-04-30T14:47:35.369Z,3.90
2023-04-30T14:50:03.497Z,3.00
2023-04-30T14:52:31.570Z,2.47
2023-04-30T14:55:01.028Z,3.83
2023-04-30T14:57:29.810Z,2.57
2023-04-30T14:59:59.477Z,2.80
2023-04-30T15:02:27.648Z,2.20
2023-04-30T15:04:55.868Z,2.83
2023-04-30T15:07:23.997Z,3.70
2023-04-30T15:09:52.711Z,2.40
2023-04-30T15:12:22.463Z,4.70
2023-04-30T15:14:50.597Z,2.77
2023-04-30T15:17:18.707Z,5.33
2023-04-30T15:19:46.877Z,2.50
2023-04-30T15:22:16.227Z,3.60
2023-04-30T15:24:44.490Z,3.40
2023-04-30T15:27:13.029Z,3.50
2023-04-30T15:29:42.985Z,3.40
2023-04-30T15:32:11.055Z,3.70
2023-04-30T15:34:39.173Z,4.10
2023-04-30T15:37:07.358Z,3.40
2023-04-30T15:39:35.730Z,2.47
2023-04-30T15:42:04.006Z,3.83
2023-04-30T15:44:32.088Z,3.13
2023-04-30T15:47:01.642Z,4.87
2023-04-30T15:49:29.826Z,2.70
2023-04-30T15:51:57.947Z,2.90
2023-04-30T15:54:26.072Z,3.13
2023-04-30T15:56:54.153Z,3.83
2023-04-30T15:59:23.351Z,3.10
2023-04-30T16:01:51.485Z,2.43
2023-04-30T16:04:21.025Z,4.23
2023-04-30T16:06:50.592Z,3.23
2023-04-30T16:09:19.817Z,3.10
2023-04-30T16:11:48.427Z,4.80
2023-04-30T16:14:16.644Z,2.47
2023-04-30T16:16:44.859Z,5.67
2023-04-30T16:19:14.051Z,5.57
2023-04-30T16:21:44.324Z,2.30
2023-04-30T16:24:12.833Z,2.90
2023-04-30T16:26:40.935Z,2.50
2023-04-30T16:29:09.522Z,3.40
2023-04-30T16:31:37.890Z,4.20
2023-04-30T16:34:06.081Z,2.90
2023-04-30T16:36:34.198Z,5.20
2023-04-30T16:39:03.736Z,4.20
2023-04-30T16:41:31.856Z,3.40
2023-04-30T16:44:00.037Z,3.33
2023-04-30T16:46:28.431Z,2.70
2023-04-30T16:48:56.659Z,5.00
2023-04-30T16:51:24.801Z,4.73
2023-04-30T16:53:52.950Z,2.30
2023-04-30T16:56:22.452Z,3.30
2023-04-30T16:58:50.727Z,7.33
2023-04-30T17:01:19.146Z,2.63
2023-04-30T17:03:47.521Z,4.10
2023-04-30T17:06:15.716Z,2.50
2023-04-30T17:08:43.881Z,5.63
2023-04-30T17:11:12.061Z,2.57
2023-04-30T17:13:41.760Z,5.10
2023-04-30T17:16:09.900Z,4.23
2023-04-30T17:18:38.135Z,5.13
2023-04-30T17:21:06.383Z,3.70
2023-04-30T17:23:34.494Z,3.23
2023-04-30T17:26:03.858Z,2.27
2023-04-30T17:28:32.774Z,4.50
2023-04-30T17:31:06.683Z,2.77
2023-04-30T17:33:34.912Z,3.27
2023-04-30T17:36:03.374Z,3.13
2023-04-30T17:38:32.159Z,3.60
2023-04-30T17:41:00.369Z,2.70
2023-04-30T17:43:28.548Z,2.97
2023-04-30T17:45:57.319Z,2.40
2023-04-30T17:48:27.306Z,3.17
2023-04-30T17:50:55.734Z,2.50
2023-04-30T17:53:23.843Z,6.17
2023-04-30T17:55:52.381Z,4.53
2023-04-30T17:58:20.997Z,3.13
2023-04-30T18:00:49.141Z,5.10
2023-04-30T18:03:17.363Z,8.10
2023-04-30T18:05:46.947Z,5.63
2023-04-30T18:08:15.126Z,5.03
2023-04-30T18:10:43.229Z,9.30
2023-04-30T18:13:11.368Z,7.23
2023-04-30T18:15:39.500Z,4.30
2023-04-30T18:18:07.720Z,3.73
2023-04-30T18:20:36.500Z,7.30
2023-04-30T18:23:08.512Z,4.60
2023-04-30T18:25:38.009Z,4.80
2023-04-30T18:28:07.675Z,7.37
2023-04-30T18:30:36.200Z,4.97
2023-04-30T18:33:05.379Z,4.40
2023-04-30T18:35:34.030Z,3.10
2023-04-30T18:38:02.881Z,4.20
2023-04-30T18:40:32.486Z,4.20
2023-04-30T18:43:00.581Z,4.90
2023-04-30T18:45:28.650Z,4.50
2023-04-30T18:47:56.871Z,4.00
2023-04-30T18:50:26.050Z,2.93
2023-04-30T18:52:54.523Z,4.40
2023-04-30T18:55:23.028Z,3.60
2023-04-30T18:57:52.471Z,5.50
2023-04-30T19:00:20.961Z,3.50
2023-04-30T19:02:49.191Z,4.80
2023-04-30T19:05:17.452Z,3.80
2023-04-30T19:07:45.748Z,3.93
2023-04-30T19:10:14.195Z,4.93
2023-04-30T19:12:43.905Z,5.90
2023-04-30T19:15:14.958Z,4.07
2023-04-30T19:17:43.223Z,3.93
2023-04-30T19:20:12.495Z,7.80
2023-04-30T19:22:41.422Z,5.57
2023-04-30T19:25:10.417Z,4.40
2023-04-30T19:27:38.577Z,9.30
2023-04-30T19:30:08.013Z,3.50
2023-04-30T19:32:38.024Z,4.73
2023-04-30T19:35:06.992Z,3.27
2023-04-30T19:37:35.081Z,5.43
2023-04-30T19:40:04.310Z,4.20
2023-04-30T19:42:32.397Z,10.73
2023-04-30T19:45:00.435Z,8.00
2023-04-30T19:47:28.546Z,28.07
2023-04-30T19:49:58.100Z,17.50
2023-04-30T19:52:26.390Z,17.20
2023-04-30T19:54:54.451Z,10.60
2023-04-30T19:57:22.550Z,4.87
2023-04-30T19:59:50.734Z,8.33
2023-04-30T20:02:18.840Z,4.77
2023-04-30T20:04:47.042Z,5.43
2023-04-30T20:07:16.755Z,3.77
2023-04-30T20:09:45.307Z,4.47
2023-04-30T20:12:13.389Z,6.57
2023-04-30T20:14:41.516Z,6.03
2023-04-30T20:17:09.644Z,4.23
2023-04-30T20:19:37.758Z,5.97
2023-04-30T20:22:13.273Z,4.93
2023-04-30T20:24:44.708Z,6.07
2023-04-30T20:27:13.491Z,4.97
2023-04-30T20:29:41.595Z,8.30
2023-04-30T20:32:09.891Z,6.03
2023-04-30T20:34:38.349Z,5.43
2023-04-30T20:37:06.448Z,6.57
2023-04-30T20:39:34.542Z,5.70
2023-04-30T20:42:04.054Z,6.53
2023-04-30T20:44:33.561Z,4.90
2023-04-30T20:47:03.016Z,5.50
2023-04-30T20:49:31.232Z,10.03
2023-04-30T20:51:59.324Z,7.13
2023-04-30T20:54:27.546Z,7.27
2023-04-30T20:56:55.771Z,6.90
2023-04-30T20:59:25.259Z,6.37
2023-04-30T21:01:53.374Z,7.30
2023-04-30T21:04:21.460Z,11.10
2023-04-30T21:06:49.537Z,9.07
2023-04-30T21:09:17.729Z,5.80
2023-04-30T21:11:45.854Z,6.73
2023-04-30T21:14:13.901Z,13.40
2023-04-30T21:16:43.914Z,8.27
2023-04-30T21:19:12.162Z,7.90
2023-04-30T21:21:40.335Z,5.93
2023-04-30T21:24:08.834Z,6.20
2023-04-30T21:26:36.920Z,14.00
2023-04-30T21:29:05.022Z,8.33
2023-04-30T21:31:33.212Z,10.00
2023-04-30T21:34:02.739Z,6.80
2023-04-30T21:36:31.413Z,5.47
2023-04-30T21:38:59.499Z,6.43
2023-04-30T21:41:28.379Z,6.70
2023-04-30T21:43:56.972Z,6.47
2023-04-30T21:46:25.490Z,5.97
2023-04-30T21:48:53.934Z,8.80
2023-04-30T21:51:23.464Z,6.80
2023-04-30T21:53:51.585Z,6.60
2023-04-30T21:56:21.622Z,6.53
2023-04-30T21:58:49.955Z,23.30
2023-04-30T22:01:18.273Z,16.27
2023-04-30T22:03:46.674Z,9.23
2023-04-30T22:06:14.954Z,12.57
2023-04-30T22:08:44.676Z,20.33
2023-04-30T22:11:12.926Z,15.13
2023-04-30T22:13:41.911Z,19.30
2023-04-30T22:16:10.089Z,17.30
2023-04-30T22:18:38.240Z,10.90
2023-04-30T22:21:06.825Z,8.50
2023-04-30T22:23:35.221Z,11.50
2023-04-30T22:26:09.640Z,6.97
2023-04-30T22:28:37.953Z,8.53
2023-04-30T22:31:06.375Z,8.17
2023-04-30T22:33:37.136Z,9.03
2023-04-30T22:36:06.478Z,7.27
2023-04-30T22:38:35.516Z,9.63
2023-04-30T22:41:05.789Z,7.93
2023-04-30T22:43:34.050Z,11.70
2023-04-30T22:46:02.599Z,8.73
2023-04-30T22:48:31.117Z,13.63
2023-04-30T22:50:59.726Z,9.37
2023-04-30T22:53:27.982Z,10.63
2023-04-30T22:55:56.491Z,11.80
2023-04-30T22:58:26.015Z,11.90
2023-04-30T23:00:54.296Z,10.63
2023-04-30T23:03:22.568Z,11.53
2023-04-30T23:05:51.591Z,7.23
2023-04-30T23:08:19.773Z,11.17
2023-04-30T23:10:47.919Z,6.67
2023-04-30T23:13:16.189Z,7.60
2023-04-30T23:15:45.741Z,6.60
2023-04-30T23:18:13.893Z,7.20
2023-04-30T23:20:42.267Z,7.67
2023-04-30T23:23:10.440Z,8.50
2023-04-30T23:25:39.050Z,6.23
2023-04-30T23:28:07.296Z,7.13
2023-04-30T23:30:38.983Z,15.40
2023-04-30T23:33:08.561Z,31.27
2023-04-30T23:35:36.777Z,24.60
2023-04-30T23:38:04.991Z,11.53
2023-04-30T23:40:33.125Z,8.93
2023-04-30T23:43:01.839Z,8.50
2023-04-30T23:45:30.025Z,7.30
2023-04-30T23:47:58.238Z,7.37
2023-04-30T23:50:27.942Z,12.27
2023-04-30T23:52:56.082Z,5.87
2023-04-30T23:55:24.209Z,5.37
2023-04-30T23:57:52.264Z,6.10
